sensor_id;sensor_type;location;lat;lon;timestamp;P1;durP1;ratioP1;P2;durP2;ratioP2
46128;SDS011;31860;45.186;5.790;2024-01-30T00:01:54;2.63;;;1.70;;
46128;SDS011;31860;45.186;5.790;2024-01-30T00:04:19;2.45;;;1.42;;
46128;SDS011;31860;45.186;5.790;2024-01-30T00:06:45;3.95;;;2.33;;
46128;SDS011;31860;45.186;5.790;2024-01-30T00:09:10;3.40;;;2.17;;
46128;SDS011;31860;45.186;5.790;2024-01-30T00:11:36;2.08;;;1.38;;
46128;SDS011;31860;45.186;5.790;2024-01-30T00:14:03;4.10;;;2.15;;
46128;SDS011;31860;45.186;5.790;2024-01-30T00:16:29;3.13;;;2.33;;
46128;SDS011;31860;45.186;5.790;2024-01-30T00:18:54;1.95;;;1.27;;
46128;SDS011;31860;45.186;5.790;2024-01-30T00:21:20;8.48;;;3.05;;
46128;SDS011;31860;45.186;5.790;2024-01-30T00:23:46;3.92;;;2.10;;
46128;SDS011;31860;45.186;5.790;2024-01-30T00:26:12;4.95;;;2.63;;
46128;SDS011;31860;45.186;5.790;2024-01-30T00:28:39;4.07;;;2.40;;
46128;SDS011;31860;45.186;5.790;2024-01-30T00:31:05;2.88;;;1.85;;
46128;SDS011;31860;45.186;5.790;2024-01-30T00:33:30;3.67;;;1.80;;
46128;SDS011;31860;45.186;5.790;2024-01-30T00:35:56;2.75;;;2.13;;
46128;SDS011;31860;45.186;5.790;2024-01-30T00:38:21;3.75;;;1.48;;
46128;SDS011;31860;45.186;5.790;2024-01-30T00:40:47;2.70;;;2.42;;
46128;SDS011;31860;45.186;5.790;2024-01-30T00:43:13;3.25;;;2.00;;
46128;SDS011;31860;45.186;5.790;2024-01-30T00:45:38;2.67;;;1.63;;
46128;SDS011;31860;45.186;5.790;2024-01-30T00:48:03;4.13;;;1.95;;
46128;SDS011;31860;45.186;5.790;2024-01-30T00:50:29;3.55;;;2.10;;
46128;SDS011;31860;45.186;5.790;2024-01-30T00:52:55;3.05;;;2.20;;
46128;SDS011;31860;45.186;5.790;2024-01-30T00:55:20;4.70;;;2.10;;
46128;SDS011;31860;45.186;5.790;2024-01-30T00:57:46;2.90;;;1.90;;
46128;SDS011;31860;45.186;5.790;2024-01-30T01:00:12;2.50;;;1.27;;
46128;SDS011;31860;45.186;5.790;2024-01-30T01:02:38;8.23;;;1.83;;
46128;SDS011;31860;45.186;5.790;2024-01-30T01:05:04;3.28;;;1.55;;
46128;SDS011;31860;45.186;5.790;2024-01-30T01:07:30;2.70;;;1.52;;
46128;SDS011;31860;45.186;5.790;2024-01-30T01:09:55;3.55;;;2.13;;
46128;SDS011;31860;45.186;5.790;2024-01-30T01:12:21;2.22;;;1.35;;
46128;SDS011;31860;45.186;5.790;2024-01-30T01:14:46;4.28;;;1.88;;
46128;SDS011;31860;45.186;5.790;2024-01-30T01:17:12;1.67;;;1.58;;
46128;SDS011;31860;45.186;5.790;2024-01-30T01:19:37;6.45;;;2.35;;
46128;SDS011;31860;45.186;5.790;2024-01-30T01:22:03;12.65;;;1.98;;
46128;SDS011;31860;45.186;5.790;2024-01-30T01:24:30;3.83;;;1.52;;
46128;SDS011;31860;45.186;5.790;2024-01-30T01:26:56;2.80;;;1.50;;
46128;SDS011;31860;45.186;5.790;2024-01-30T01:29:22;6.82;;;1.45;;
46128;SDS011;31860;45.186;5.790;2024-01-30T01:31:53;4.22;;;2.08;;
46128;SDS011;31860;45.186;5.790;2024-01-30T01:34:21;2.75;;;1.92;;
46128;SDS011;31860;45.186;5.790;2024-01-30T01:36:48;5.50;;;2.55;;
46128;SDS011;31860;45.186;5.790;2024-01-30T01:39:14;3.05;;;1.92;;
46128;SDS011;31860;45.186;5.790;2024-01-30T01:41:39;1.83;;;1.73;;
46128;SDS011;31860;45.186;5.790;2024-01-30T01:44:06;3.95;;;1.75;;
46128;SDS011;31860;45.186;5.790;2024-01-30T01:46:33;2.55;;;1.77;;
46128;SDS011;31860;45.186;5.790;2024-01-30T01:48:59;3.53;;;1.75;;
46128;SDS011;31860;45.186;5.790;2024-01-30T01:51:27;2.83;;;1.88;;
46128;SDS011;31860;45.186;5.790;2024-01-30T01:53:54;3.50;;;2.00;;
46128;SDS011;31860;45.186;5.790;2024-01-30T01:56:21;13.10;;;3.08;;
46128;SDS011;31860;45.186;5.790;2024-01-30T01:58:47;2.70;;;1.92;;
46128;SDS011;31860;45.186;5.790;2024-01-30T02:01:14;2.22;;;1.95;;
46128;SDS011;31860;45.186;5.790;2024-01-30T02:03:43;4.03;;;1.52;;
46128;SDS011;31860;45.186;5.790;2024-01-30T02:06:10;3.28;;;2.25;;
46128;SDS011;31860;45.186;5.790;2024-01-30T02:08:37;4.63;;;2.17;;
46128;SDS011;31860;45.186;5.790;2024-01-30T02:11:03;3.60;;;1.90;;
46128;SDS011;31860;45.186;5.790;2024-01-30T02:13:28;2.95;;;1.60;;
46128;SDS011;31860;45.186;5.790;2024-01-30T02:15:53;3.80;;;2.03;;
46128;SDS011;31860;45.186;5.790;2024-01-30T02:18:19;3.95;;;2.20;;
46128;SDS011;31860;45.186;5.790;2024-01-30T02:20:46;3.63;;;2.17;;
46128;SDS011;31860;45.186;5.790;2024-01-30T02:23:12;4.65;;;2.40;;
46128;SDS011;31860;45.186;5.790;2024-01-30T02:25:40;3.47;;;2.15;;
46128;SDS011;31860;45.186;5.790;2024-01-30T02:28:12;6.07;;;2.92;;
46128;SDS011;31860;45.186;5.790;2024-01-30T02:30:47;1.63;;;1.45;;
46128;SDS011;31860;45.186;5.790;2024-01-30T02:33:13;1.75;;;1.25;;
46128;SDS011;31860;45.186;5.790;2024-01-30T02:35:38;2.38;;;2.08;;
46128;SDS011;31860;45.186;5.790;2024-01-30T02:38:04;1.90;;;1.50;;
46128;SDS011;31860;45.186;5.790;2024-01-30T02:40:29;3.42;;;1.50;;
46128;SDS011;31860;45.186;5.790;2024-01-30T02:42:55;3.72;;;1.98;;
46128;SDS011;31860;45.186;5.790;2024-01-30T02:45:21;2.30;;;1.85;;
46128;SDS011;31860;45.186;5.790;2024-01-30T02:47:47;2.45;;;2.03;;
46128;SDS011;31860;45.186;5.790;2024-01-30T02:50:12;3.50;;;1.98;;
46128;SDS011;31860;45.186;5.790;2024-01-30T02:52:38;3.97;;;2.03;;
46128;SDS011;31860;45.186;5.790;2024-01-30T02:55:03;1.63;;;1.42;;
46128;SDS011;31860;45.186;5.790;2024-01-30T02:57:29;6.30;;;2.63;;
46128;SDS011;31860;45.186;5.790;2024-01-30T02:59:54;6.43;;;2.47;;
46128;SDS011;31860;45.186;5.790;2024-01-30T03:02:20;3.13;;;2.17;;
46128;SDS011;31860;45.186;5.790;2024-01-30T03:04:45;1.85;;;1.58;;
46128;SDS011;31860;45.186;5.790;2024-01-30T03:07:11;2.25;;;1.55;;
46128;SDS011;31860;45.186;5.790;2024-01-30T03:09:36;3.65;;;2.15;;
46128;SDS011;31860;45.186;5.790;2024-01-30T03:12:02;4.43;;;2.30;;
46128;SDS011;31860;45.186;5.790;2024-01-30T03:14:30;4.22;;;2.65;;
46128;SDS011;31860;45.186;5.790;2024-01-30T03:16:56;1.35;;;1.25;;
46128;SDS011;31860;45.186;5.790;2024-01-30T03:19:22;2.05;;;1.75;;
46128;SDS011;31860;45.186;5.790;2024-01-30T03:21:47;4.80;;;2.42;;
46128;SDS011;31860;45.186;5.790;2024-01-30T03:24:13;3.05;;;2.22;;
46128;SDS011;31860;45.186;5.790;2024-01-30T03:26:38;3.10;;;2.78;;
46128;SDS011;31860;45.186;5.790;2024-01-30T03:29:03;11.02;;;2.90;;
46128;SDS011;31860;45.186;5.790;2024-01-30T03:31:29;4.28;;;3.08;;
46128;SDS011;31860;45.186;5.790;2024-01-30T03:33:54;4.82;;;2.40;;
46128;SDS011;31860;45.186;5.790;2024-01-30T03:36:19;2.35;;;1.92;;
46128;SDS011;31860;45.186;5.790;2024-01-30T03:38:45;4.22;;;2.67;;
46128;SDS011;31860;45.186;5.790;2024-01-30T03:41:10;2.20;;;1.98;;
46128;SDS011;31860;45.186;5.790;2024-01-30T03:43:36;4.95;;;2.75;;
46128;SDS011;31860;45.186;5.790;2024-01-30T03:46:01;5.72;;;2.88;;
46128;SDS011;31860;45.186;5.790;2024-01-30T03:48:28;2.53;;;1.75;;
46128;SDS011;31860;45.186;5.790;2024-01-30T03:50:54;2.67;;;2.03;;
46128;SDS011;31860;45.186;5.790;2024-01-30T03:53:19;2.97;;;1.88;;
46128;SDS011;31860;45.186;5.790;2024-01-30T03:55:45;4.88;;;2.60;;
46128;SDS011;31860;45.186;5.790;2024-01-30T03:58:10;9.82;;;1.80;;
46128;SDS011;31860;45.186;5.790;2024-01-30T04:00:35;3.40;;;1.50;;
46128;SDS011;31860;45.186;5.790;2024-01-30T04:03:01;3.03;;;1.60;;
46128;SDS011;31860;45.186;5.790;2024-01-30T04:05:26;3.47;;;1.80;;
46128;SDS011;31860;45.186;5.790;2024-01-30T04:07:51;2.53;;;1.65;;
46128;SDS011;31860;45.186;5.790;2024-01-30T04:10:16;3.95;;;2.17;;
46128;SDS011;31860;45.186;5.790;2024-01-30T04:12:42;3.80;;;1.70;;
46128;SDS011;31860;45.186;5.790;2024-01-30T04:15:07;4.68;;;2.00;;
46128;SDS011;31860;45.186;5.790;2024-01-30T04:17:33;3.10;;;2.05;;
46128;SDS011;31860;45.186;5.790;2024-01-30T04:19:58;3.63;;;2.05;;
46128;SDS011;31860;45.186;5.790;2024-01-30T04:22:24;5.70;;;2.55;;
46128;SDS011;31860;45.186;5.790;2024-01-30T04:24:49;3.08;;;2.22;;
46128;SDS011;31860;45.186;5.790;2024-01-30T04:27:14;3.30;;;1.90;;
46128;SDS011;31860;45.186;5.790;2024-01-30T04:29:40;4.28;;;2.65;;
46128;SDS011;31860;45.186;5.790;2024-01-30T04:32:05;3.63;;;1.98;;
46128;SDS011;31860;45.186;5.790;2024-01-30T04:34:31;2.42;;;1.90;;
46128;SDS011;31860;45.186;5.790;2024-01-30T04:36:57;4.13;;;2.08;;
46128;SDS011;31860;45.186;5.790;2024-01-30T04:39:22;2.45;;;1.92;;
46128;SDS011;31860;45.186;5.790;2024-01-30T04:41:48;2.97;;;1.88;;
46128;SDS011;31860;45.186;5.790;2024-01-30T04:44:13;1.67;;;1.40;;
46128;SDS011;31860;45.186;5.790;2024-01-30T04:46:39;1.80;;;1.50;;
46128;SDS011;31860;45.186;5.790;2024-01-30T04:49:04;4.00;;;1.88;;
46128;SDS011;31860;45.186;5.790;2024-01-30T04:51:29;2.75;;;2.00;;
46128;SDS011;31860;45.186;5.790;2024-01-30T04:53:55;2.72;;;1.65;;
46128;SDS011;31860;45.186;5.790;2024-01-30T04:56:20;0.73;;;0.68;;
46128;SDS011;31860;45.186;5.790;2024-01-30T04:58:46;1.30;;;1.20;;
46128;SDS011;31860;45.186;5.790;2024-01-30T05:01:14;2.97;;;1.30;;
46128;SDS011;31860;45.186;5.790;2024-01-30T05:03:42;1.98;;;1.35;;
46128;SDS011;31860;45.186;5.790;2024-01-30T05:06:08;2.50;;;1.50;;
46128;SDS011;31860;45.186;5.790;2024-01-30T05:08:33;3.10;;;1.55;;
46128;SDS011;31860;45.186;5.790;2024-01-30T05:11:01;2.13;;;1.73;;
46128;SDS011;31860;45.186;5.790;2024-01-30T05:13:31;4.75;;;2.13;;
46128;SDS011;31860;45.186;5.790;2024-01-30T05:15:56;1.75;;;1.50;;
46128;SDS011;31860;45.186;5.790;2024-01-30T05:18:22;2.45;;;1.83;;
46128;SDS011;31860;45.186;5.790;2024-01-30T05:20:49;3.83;;;1.75;;
46128;SDS011;31860;45.186;5.790;2024-01-30T05:23:15;2.65;;;1.58;;
46128;SDS011;31860;45.186;5.790;2024-01-30T05:25:40;2.22;;;1.40;;
46128;SDS011;31860;45.186;5.790;2024-01-30T05:28:06;5.68;;;2.10;;
46128;SDS011;31860;45.186;5.790;2024-01-30T05:30:31;1.90;;;1.33;;
46128;SDS011;31860;45.186;5.790;2024-01-30T05:32:56;2.58;;;1.85;;
46128;SDS011;31860;45.186;5.790;2024-01-30T05:35:22;4.28;;;2.53;;
46128;SDS011;31860;45.186;5.790;2024-01-30T05:37:50;3.83;;;1.75;;
46128;SDS011;31860;45.186;5.790;2024-01-30T05:40:16;2.45;;;1.98;;
46128;SDS011;31860;45.186;5.790;2024-01-30T05:42:41;4.47;;;1.98;;
46128;SDS011;31860;45.186;5.790;2024-01-30T05:45:07;4.25;;;2.03;;
46128;SDS011;31860;45.186;5.790;2024-01-30T05:47:33;9.63;;;2.08;;
46128;SDS011;31860;45.186;5.790;2024-01-30T05:49:58;1.77;;;1.58;;
46128;SDS011;31860;45.186;5.790;2024-01-30T05:52:24;2.97;;;1.83;;
46128;SDS011;31860;45.186;5.790;2024-01-30T05:54:49;4.13;;;2.03;;
46128;SDS011;31860;45.186;5.790;2024-01-30T05:57:15;3.15;;;2.45;;
46128;SDS011;31860;45.186;5.790;2024-01-30T05:59:40;1.85;;;1.30;;
46128;SDS011;31860;45.186;5.790;2024-01-30T06:02:05;4.53;;;1.98;;
46128;SDS011;31860;45.186;5.790;2024-01-30T06:04:31;1.77;;;1.38;;
46128;SDS011;31860;45.186;5.790;2024-01-30T06:06:56;2.92;;;1.77;;
46128;SDS011;31860;45.186;5.790;2024-01-30T06:09:21;2.53;;;1.65;;
46128;SDS011;31860;45.186;5.790;2024-01-30T06:11:47;1.70;;;1.60;;
46128;SDS011;31860;45.186;5.790;2024-01-30T06:14:12;7.22;;;1.95;;
46128;SDS011;31860;45.186;5.790;2024-01-30T06:16:38;3.30;;;1.85;;
46128;SDS011;31860;45.186;5.790;2024-01-30T06:19:03;4.72;;;1.95;;
46128;SDS011;31860;45.186;5.790;2024-01-30T06:21:28;2.17;;;1.60;;
46128;SDS011;31860;45.186;5.790;2024-01-30T06:23:54;3.20;;;1.63;;
46128;SDS011;31860;45.186;5.790;2024-01-30T06:26:19;2.80;;;2.08;;
46128;SDS011;31860;45.186;5.790;2024-01-30T06:28:44;2.65;;;1.95;;
46128;SDS011;31860;45.186;5.790;2024-01-30T06:31:10;1.45;;;1.35;;
46128;SDS011;31860;45.186;5.790;2024-01-30T06:33:35;2.05;;;1.85;;
46128;SDS011;31860;45.186;5.790;2024-01-30T06:36:00;1.67;;;1.38;;
46128;SDS011;31860;45.186;5.790;2024-01-30T06:38:26;2.83;;;1.85;;
46128;SDS011;31860;45.186;5.790;2024-01-30T06:40:51;2.30;;;1.67;;
46128;SDS011;31860;45.186;5.790;2024-01-30T06:43:16;7.85;;;2.53;;
46128;SDS011;31860;45.186;5.790;2024-01-30T06:45:42;8.02;;;1.75;;
46128;SDS011;31860;45.186;5.790;2024-01-30T06:48:07;4.82;;;2.30;;
46128;SDS011;31860;45.186;5.790;2024-01-30T06:50:33;2.58;;;2.20;;
46128;SDS011;31860;45.186;5.790;2024-01-30T06:52:58;2.55;;;1.88;;
46128;SDS011;31860;45.186;5.790;2024-01-30T06:55:24;3.42;;;2.13;;
46128;SDS011;31860;45.186;5.790;2024-01-30T06:57:49;2.30;;;1.48;;
46128;SDS011;31860;45.186;5.790;2024-01-30T07:00:15;2.35;;;1.75;;
46128;SDS011;31860;45.186;5.790;2024-01-30T07:02:41;1.90;;;1.70;;
46128;SDS011;31860;45.186;5.790;2024-01-30T07:05:06;2.80;;;1.65;;
46128;SDS011;31860;45.186;5.790;2024-01-30T07:07:32;5.63;;;2.50;;
46128;SDS011;31860;45.186;5.790;2024-01-30T07:09:58;1.80;;;1.58;;
46128;SDS011;31860;45.186;5.790;2024-01-30T07:12:23;3.58;;;1.92;;
46128;SDS011;31860;45.186;5.790;2024-01-30T07:14:50;3.20;;;2.15;;
46128;SDS011;31860;45.186;5.790;2024-01-30T07:17:15;5.45;;;2.40;;
46128;SDS011;31860;45.186;5.790;2024-01-30T07:19:41;2.22;;;1.98;;
46128;SDS011;31860;45.186;5.790;2024-01-30T07:22:06;3.70;;;1.83;;
46128;SDS011;31860;45.186;5.790;2024-01-30T07:24:32;6.85;;;2.30;;
46128;SDS011;31860;45.186;5.790;2024-01-30T07:26:58;3.63;;;2.13;;
46128;SDS011;31860;45.186;5.790;2024-01-30T07:29:23;1.80;;;1.38;;
46128;SDS011;31860;45.186;5.790;2024-01-30T07:31:48;6.75;;;2.58;;
46128;SDS011;31860;45.186;5.790;2024-01-30T07:34:14;16.50;;;5.40;;
46128;SDS011;31860;45.186;5.790;2024-01-30T07:36:39;11.40;;;5.70;;
46128;SDS011;31860;45.186;5.790;2024-01-30T07:39:04;6.43;;;4.10;;
46128;SDS011;31860;45.186;5.790;2024-01-30T07:41:30;13.07;;;5.93;;
46128;SDS011;31860;45.186;5.790;2024-01-30T07:43:55;6.80;;;3.70;;
46128;SDS011;31860;45.186;5.790;2024-01-30T07:46:20;4.93;;;3.33;;
46128;SDS011;31860;45.186;5.790;2024-01-30T07:48:46;9.40;;;3.03;;
46128;SDS011;31860;45.186;5.790;2024-01-30T07:51:11;4.07;;;2.40;;
46128;SDS011;31860;45.186;5.790;2024-01-30T07:53:36;12.27;;;3.45;;
46128;SDS011;31860;45.186;5.790;2024-01-30T07:56:02;4.70;;;2.78;;
46128;SDS011;31860;45.186;5.790;2024-01-30T07:58:27;2.92;;;2.33;;
46128;SDS011;31860;45.186;5.790;2024-01-30T08:00:53;2.88;;;2.33;;
46128;SDS011;31860;45.186;5.790;2024-01-30T08:03:18;6.07;;;2.38;;
46128;SDS011;31860;45.186;5.790;2024-01-30T08:05:44;4.43;;;2.03;;
46128;SDS011;31860;45.186;5.790;2024-01-30T08:08:09;3.10;;;2.35;;
46128;SDS011;31860;45.186;5.790;2024-01-30T08:10:35;2.70;;;2.03;;
46128;SDS011;31860;45.186;5.790;2024-01-30T08:13:01;4.68;;;2.17;;
46128;SDS011;31860;45.186;5.790;2024-01-30T08:15:26;1.88;;;1.70;;
46128;SDS011;31860;45.186;5.790;2024-01-30T08:17:52;4.80;;;2.80;;
46128;SDS011;31860;45.186;5.790;2024-01-30T08:20:22;1.88;;;1.45;;
46128;SDS011;31860;45.186;5.790;2024-01-30T08:22:48;5.13;;;2.42;;
46128;SDS011;31860;45.186;5.790;2024-01-30T08:25:13;6.57;;;2.70;;
46128;SDS011;31860;45.186;5.790;2024-01-30T08:27:39;4.15;;;1.95;;
46128;SDS011;31860;45.186;5.790;2024-01-30T08:30:05;5.32;;;2.15;;
46128;SDS011;31860;45.186;5.790;2024-01-30T08:32:31;4.93;;;2.95;;
46128;SDS011;31860;45.186;5.790;2024-01-30T08:34:57;2.95;;;1.73;;
46128;SDS011;31860;45.186;5.790;2024-01-30T08:37:22;2.08;;;1.58;;
46128;SDS011;31860;45.186;5.790;2024-01-30T08:39:48;1.85;;;1.63;;
46128;SDS011;31860;45.186;5.790;2024-01-30T08:42:13;2.67;;;1.88;;
46128;SDS011;31860;45.186;5.790;2024-01-30T08:44:39;3.03;;;1.77;;
46128;SDS011;31860;45.186;5.790;2024-01-30T08:47:04;3.78;;;2.40;;
46128;SDS011;31860;45.186;5.790;2024-01-30T08:49:29;8.30;;;2.17;;
46128;SDS011;31860;45.186;5.790;2024-01-30T08:51:55;12.05;;;2.13;;
46128;SDS011;31860;45.186;5.790;2024-01-30T08:54:20;3.08;;;2.17;;
46128;SDS011;31860;45.186;5.790;2024-01-30T08:56:45;2.47;;;2.25;;
46128;SDS011;31860;45.186;5.790;2024-01-30T08:59:11;3.72;;;2.42;;
46128;SDS011;31860;45.186;5.790;2024-01-30T09:01:36;6.07;;;2.00;;
46128;SDS011;31860;45.186;5.790;2024-01-30T09:04:02;3.13;;;2.00;;
46128;SDS011;31860;45.186;5.790;2024-01-30T09:06:27;4.55;;;2.33;;
46128;SDS011;31860;45.186;5.790;2024-01-30T09:08:53;5.63;;;1.92;;
46128;SDS011;31860;45.186;5.790;2024-01-30T09:11:19;2.28;;;1.50;;
46128;SDS011;31860;45.186;5.790;2024-01-30T09:13:44;2.33;;;1.67;;
46128;SDS011;31860;45.186;5.790;2024-01-30T09:16:10;2.28;;;1.42;;
46128;SDS011;31860;45.186;5.790;2024-01-30T09:18:35;2.05;;;1.55;;
46128;SDS011;31860;45.186;5.790;2024-01-30T09:21:00;1.25;;;1.17;;
46128;SDS011;31860;45.186;5.790;2024-01-30T09:23:27;2.22;;;1.60;;
46128;SDS011;31860;45.186;5.790;2024-01-30T09:25:52;3.22;;;1.63;;
46128;SDS011;31860;45.186;5.790;2024-01-30T09:28:18;3.38;;;1.65;;
46128;SDS011;31860;45.186;5.790;2024-01-30T09:30:44;2.78;;;2.30;;
46128;SDS011;31860;45.186;5.790;2024-01-30T09:33:09;5.40;;;2.00;;
46128;SDS011;31860;45.186;5.790;2024-01-30T09:35:35;3.75;;;2.42;;
46128;SDS011;31860;45.186;5.790;2024-01-30T09:38:03;1.75;;;1.58;;
46128;SDS011;31860;45.186;5.790;2024-01-30T09:40:28;2.35;;;1.50;;
46128;SDS011;31860;45.186;5.790;2024-01-30T09:42:54;3.05;;;1.88;;
46128;SDS011;31860;45.186;5.790;2024-01-30T09:45:23;2.60;;;1.70;;
46128;SDS011;31860;45.186;5.790;2024-01-30T09:47:49;1.75;;;1.33;;
46128;SDS011;31860;45.186;5.790;2024-01-30T09:50:15;2.05;;;1.58;;
46128;SDS011;31860;45.186;5.790;2024-01-30T09:52:42;1.58;;;1.48;;
46128;SDS011;31860;45.186;5.790;2024-01-30T09:55:09;3.90;;;1.55;;
46128;SDS011;31860;45.186;5.790;2024-01-30T09:57:35;1.13;;;1.00;;
46128;SDS011;31860;45.186;5.790;2024-01-30T10:00:01;1.58;;;1.40;;
46128;SDS011;31860;45.186;5.790;2024-01-30T10:02:27;2.00;;;1.27;;
46128;SDS011;31860;45.186;5.790;2024-01-30T10:04:53;1.42;;;1.33;;
46128;SDS011;31860;45.186;5.790;2024-01-30T10:07:18;3.22;;;1.67;;
46128;SDS011;31860;45.186;5.790;2024-01-30T10:09:44;2.55;;;1.98;;
46128;SDS011;31860;45.186;5.790;2024-01-30T10:12:10;2.83;;;2.15;;
46128;SDS011;31860;45.186;5.790;2024-01-30T10:14:39;3.47;;;1.38;;
46128;SDS011;31860;45.186;5.790;2024-01-30T10:17:05;4.07;;;2.40;;
46128;SDS011;31860;45.186;5.790;2024-01-30T10:19:32;4.25;;;1.92;;
46128;SDS011;31860;45.186;5.790;2024-01-30T10:21:57;2.60;;;1.63;;
46128;SDS011;31860;45.186;5.790;2024-01-30T10:24:25;1.30;;;1.20;;
46128;SDS011;31860;45.186;5.790;2024-01-30T10:26:51;1.63;;;1.38;;
46128;SDS011;31860;45.186;5.790;2024-01-30T10:29:17;1.73;;;1.23;;
46128;SDS011;31860;45.186;5.790;2024-01-30T10:31:42;3.92;;;2.05;;
46128;SDS011;31860;45.186;5.790;2024-01-30T10:34:08;1.45;;;1.33;;
46128;SDS011;31860;45.186;5.790;2024-01-30T10:36:33;1.95;;;1.33;;
46128;SDS011;31860;45.186;5.790;2024-01-30T10:39:07;1.40;;;1.20;;
46128;SDS011;31860;45.186;5.790;2024-01-30T10:41:34;1.52;;;1.30;;
46128;SDS011;31860;45.186;5.790;2024-01-30T10:44:09;1.35;;;1.25;;
46128;SDS011;31860;45.186;5.790;2024-01-30T10:46:37;1.70;;;0.98;;
46128;SDS011;31860;45.186;5.790;2024-01-30T10:49:04;2.33;;;1.75;;
46128;SDS011;31860;45.186;5.790;2024-01-30T10:51:30;2.20;;;1.27;;
46128;SDS011;31860;45.186;5.790;2024-01-30T10:53:57;3.03;;;1.90;;
46128;SDS011;31860;45.186;5.790;2024-01-30T10:56:23;4.22;;;2.20;;
46128;SDS011;31860;45.186;5.790;2024-01-30T10:58:50;1.42;;;1.33;;
46128;SDS011;31860;45.186;5.790;2024-01-30T11:01:20;1.27;;;1.17;;
46128;SDS011;31860;45.186;5.790;2024-01-30T11:03:53;1.27;;;1.17;;
46128;SDS011;31860;45.186;5.790;2024-01-30T11:06:22;1.80;;;1.15;;
46128;SDS011;31860;45.186;5.790;2024-01-30T11:09:00;0.82;;;0.80;;
46128;SDS011;31860;45.186;5.790;2024-01-30T11:11:29;2.25;;;1.10;;
46128;SDS011;31860;45.186;5.790;2024-01-30T11:13:54;1.40;;;1.10;;
46128;SDS011;31860;45.186;5.790;2024-01-30T11:16:19;0.82;;;0.82;;
46128;SDS011;31860;45.186;5.790;2024-01-30T11:18:49;2.33;;;1.00;;
46128;SDS011;31860;45.186;5.790;2024-01-30T11:21:16;1.88;;;1.20;;
46128;SDS011;31860;45.186;5.790;2024-01-30T11:23:41;0.70;;;0.70;;
46128;SDS011;31860;45.186;5.790;2024-01-30T11:26:07;1.13;;;0.88;;
46128;SDS011;31860;45.186;5.790;2024-01-30T11:28:35;2.20;;;1.30;;
46128;SDS011;31860;45.186;5.790;2024-01-30T11:31:06;0.70;;;0.70;;
46128;SDS011;31860;45.186;5.790;2024-01-30T11:33:32;2.22;;;1.40;;
46128;SDS011;31860;45.186;5.790;2024-01-30T11:35:58;0.70;;;0.70;;
46128;SDS011;31860;45.186;5.790;2024-01-30T11:38:25;3.17;;;1.17;;
46128;SDS011;31860;45.186;5.790;2024-01-30T11:40:52;0.85;;;0.85;;
46128;SDS011;31860;45.186;5.790;2024-01-30T11:43:19;3.47;;;1.38;;
46128;SDS011;31860;45.186;5.790;2024-01-30T11:45:44;0.70;;;0.70;;
46128;SDS011;31860;45.186;5.790;2024-01-30T11:48:11;0.50;;;0.50;;
46128;SDS011;31860;45.186;5.790;2024-01-30T11:50:38;3.78;;;0.73;;
46128;SDS011;31860;45.186;5.790;2024-01-30T11:53:04;0.55;;;0.55;;
46128;SDS011;31860;45.186;5.790;2024-01-30T11:55:30;0.47;;;0.47;;
46128;SDS011;31860;45.186;5.790;2024-01-30T11:57:59;1.13;;;0.80;;
46128;SDS011;31860;45.186;5.790;2024-01-30T12:00:24;2.38;;;0.90;;
46128;SDS011;31860;45.186;5.790;2024-01-30T12:02:51;3.28;;;1.55;;
46128;SDS011;31860;45.186;5.790;2024-01-30T12:05:20;2.00;;;1.20;;
46128;SDS011;31860;45.186;5.790;2024-01-30T12:07:47;0.70;;;0.70;;
46128;SDS011;31860;45.186;5.790;2024-01-30T12:10:12;0.65;;;0.63;;
46128;SDS011;31860;45.186;5.790;2024-01-30T12:12:39;2.00;;;1.02;;
46128;SDS011;31860;45.186;5.790;2024-01-30T12:15:05;1.70;;;1.40;;
46128;SDS011;31860;45.186;5.790;2024-01-30T12:17:32;1.15;;;1.05;;
46128;SDS011;31860;45.186;5.790;2024-01-30T12:20:09;1.25;;;1.13;;
46128;SDS011;31860;45.186;5.790;2024-01-30T12:22:46;2.00;;;0.98;;
46128;SDS011;31860;45.186;5.790;2024-01-30T12:25:13;2.28;;;1.30;;
46128;SDS011;31860;45.186;5.790;2024-01-30T12:27:44;2.63;;;1.55;;
46128;SDS011;31860;45.186;5.790;2024-01-30T12:30:14;4.03;;;0.90;;
46128;SDS011;31860;45.186;5.790;2024-01-30T12:32:40;1.33;;;0.82;;
46128;SDS011;31860;45.186;5.790;2024-01-30T12:35:08;0.65;;;0.65;;
46128;SDS011;31860;45.186;5.790;2024-01-30T12:37:35;0.70;;;0.70;;
46128;SDS011;31860;45.186;5.790;2024-01-30T12:40:01;3.20;;;1.40;;
46128;SDS011;31860;45.186;5.790;2024-01-30T12:42:27;4.32;;;0.88;;
46128;SDS011;31860;45.186;5.790;2024-01-30T12:44:52;5.88;;;0.70;;
46128;SDS011;31860;45.186;5.790;2024-01-30T12:47:18;2.50;;;1.75;;
46128;SDS011;31860;45.186;5.790;2024-01-30T12:49:46;1.13;;;0.77;;
46128;SDS011;31860;45.186;5.790;2024-01-30T12:52:11;1.17;;;0.65;;
46128;SDS011;31860;45.186;5.790;2024-01-30T12:54:38;1.40;;;1.27;;
46128;SDS011;31860;45.186;5.790;2024-01-30T12:57:04;1.83;;;0.88;;
46128;SDS011;31860;45.186;5.790;2024-01-30T12:59:30;1.13;;;0.73;;
46128;SDS011;31860;45.186;5.790;2024-01-30T13:01:56;11.38;;;0.88;;
46128;SDS011;31860;45.186;5.790;2024-01-30T13:04:22;0.50;;;0.50;;
46128;SDS011;31860;45.186;5.790;2024-01-30T13:06:48;1.77;;;0.82;;
46128;SDS011;31860;45.186;5.790;2024-01-30T13:09:13;1.85;;;1.33;;
46128;SDS011;31860;45.186;5.790;2024-01-30T13:11:39;0.77;;;0.77;;
46128;SDS011;31860;45.186;5.790;2024-01-30T13:14:04;1.25;;;1.17;;
46128;SDS011;31860;45.186;5.790;2024-01-30T13:16:29;1.20;;;1.10;;
46128;SDS011;31860;45.186;5.790;2024-01-30T13:18:55;5.57;;;0.70;;
46128;SDS011;31860;45.186;5.790;2024-01-30T13:21:20;0.60;;;0.60;;
46128;SDS011;31860;45.186;5.790;2024-01-30T13:23:46;0.65;;;0.52;;
46128;SDS011;31860;45.186;5.790;2024-01-30T13:26:11;1.38;;;0.90;;
46128;SDS011;31860;45.186;5.790;2024-01-30T13:28:37;0.52;;;0.52;;
46128;SDS011;31860;45.186;5.790;2024-01-30T13:31:02;0.60;;;0.57;;
46128;SDS011;31860;45.186;5.790;2024-01-30T13:33:28;0.85;;;0.80;;
46128;SDS011;31860;45.186;5.790;2024-01-30T13:35:53;0.88;;;0.55;;
46128;SDS011;31860;45.186;5.790;2024-01-30T13:38:19;0.40;;;0.40;;
46128;SDS011;31860;45.186;5.790;2024-01-30T13:40:44;0.73;;;0.73;;
46128;SDS011;31860;45.186;5.790;2024-01-30T13:43:09;0.90;;;0.60;;
46128;SDS011;31860;45.186;5.790;2024-01-30T13:45:35;1.55;;;0.80;;
46128;SDS011;31860;45.186;5.790;2024-01-30T13:48:00;0.98;;;0.82;;
46128;SDS011;31860;45.186;5.790;2024-01-30T13:50:28;1.23;;;0.60;;
46128;SDS011;31860;45.186;5.790;2024-01-30T13:52:53;0.88;;;0.88;;
46128;SDS011;31860;45.186;5.790;2024-01-30T13:55:19;0.75;;;0.70;;
46128;SDS011;31860;45.186;5.790;2024-01-30T13:57:44;0.75;;;0.73;;
46128;SDS011;31860;45.186;5.790;2024-01-30T14:00:10;0.68;;;0.47;;
46128;SDS011;31860;45.186;5.790;2024-01-30T14:02:36;0.73;;;0.73;;
46128;SDS011;31860;45.186;5.790;2024-01-30T14:05:01;1.77;;;1.08;;
46128;SDS011;31860;45.186;5.790;2024-01-30T14:07:29;2.47;;;0.82;;
46128;SDS011;31860;45.186;5.790;2024-01-30T14:09:54;1.00;;;0.75;;
46128;SDS011;31860;45.186;5.790;2024-01-30T14:12:20;1.15;;;1.05;;
46128;SDS011;31860;45.186;5.790;2024-01-30T14:14:45;0.32;;;0.32;;
46128;SDS011;31860;45.186;5.790;2024-01-30T14:17:10;1.35;;;1.25;;
46128;SDS011;31860;45.186;5.790;2024-01-30T14:19:36;1.23;;;1.05;;
46128;SDS011;31860;45.186;5.790;2024-01-30T14:22:01;0.65;;;0.65;;
46128;SDS011;31860;45.186;5.790;2024-01-30T14:24:27;1.13;;;0.85;;
46128;SDS011;31860;45.186;5.790;2024-01-30T14:26:52;0.52;;;0.52;;
46128;SDS011;31860;45.186;5.790;2024-01-30T14:29:18;1.08;;;0.98;;
46128;SDS011;31860;45.186;5.790;2024-01-30T14:31:43;0.95;;;0.65;;
46128;SDS011;31860;45.186;5.790;2024-01-30T14:34:08;2.00;;;1.27;;
46128;SDS011;31860;45.186;5.790;2024-01-30T14:36:36;1.25;;;0.80;;
46128;SDS011;31860;45.186;5.790;2024-01-30T14:39:02;0.73;;;0.73;;
46128;SDS011;31860;45.186;5.790;2024-01-30T14:41:28;0.75;;;0.75;;